createdAt,value
2022-10-29T00:02:06.951Z,5.60
2022-10-29T00:04:33.598Z,5.20
2022-10-29T00:07:00.353Z,4.00
2022-10-29T00:09:27.000Z,6.17
2022-10-29T00:11:53.614Z,5.63
2022-10-29T00:14:20.257Z,13.13
2022-10-29T00:16:46.964Z,28.37
2022-10-29T00:19:13.574Z,4.20
2022-10-29T00:21:40.652Z,2.63
2022-10-29T00:24:09.575Z,5.83
2022-10-29T00:26:36.345Z,6.80
2022-10-29T00:29:03.213Z,3.27
2022-10-29T00:31:31.148Z,5.87
2022-10-29T00:33:57.833Z,6.10
2022-10-29T00:36:27.010Z,18.93
2022-10-29T00:38:53.814Z,9.03
2022-10-29T00:41:23.043Z,5.73
2022-10-29T00:44:11.035Z,16.77
2022-10-29T00:49:10.207Z,5.93
2022-10-29T00:51:37.349Z,7.67
2022-10-29T00:54:07.164Z,5.83
2022-10-29T00:56:37.078Z,8.27
2022-10-29T00:59:05.602Z,6.77
2022-10-29T01:01:32.413Z,7.53
2022-10-29T01:04:00.310Z,5.47
2022-10-29T01:06:28.669Z,16.60
2022-10-29T01:08:55.335Z,5.87
2022-10-29T01:11:36.720Z,11.73
2022-10-29T01:14:27.932Z,6.70
2022-10-29T01:17:20.390Z,11.00
2022-10-29T01:20:05.497Z,8.60
2022-10-29T01:22:35.233Z,3.70
2022-10-29T01:25:32.782Z,14.27
2022-10-29T01:28:14.448Z,15.13
2022-10-29T01:30:53.176Z,10.53
2022-10-29T01:33:32.519Z,14.73
2022-10-29T01:36:12.374Z,9.07
2022-10-29T01:38:54.266Z,10.20
2022-10-29T01:41:25.837Z,8.77
2022-10-29T01:44:15.598Z,8.30
2022-10-29T01:46:52.607Z,11.43
2022-10-29T01:49:24.934Z,14.70
2022-10-29T01:51:52.778Z,14.43
2022-10-29T01:54:19.520Z,12.10
2022-10-29T01:56:57.117Z,13.50
2022-10-29T01:59:35.717Z,9.30
2022-10-29T02:02:33.296Z,15.60
2022-10-29T02:05:08.957Z,29.93
2022-10-29T02:07:55.015Z,12.23
2022-10-29T02:10:38.362Z,35.60
2022-10-29T02:13:05.086Z,16.03
2022-10-29T02:15:34.913Z,10.57
2022-10-29T02:18:03.303Z,44.80
2022-10-29T02:20:30.383Z,35.87
2022-10-29T02:22:57.464Z,37.63
2022-10-29T02:25:24.362Z,30.10
2022-10-29T02:27:51.085Z,14.23
2022-10-29T02:30:17.988Z,67.90
2022-10-29T02:32:44.768Z,126.60
2022-10-29T02:35:11.542Z,158.93
2022-10-29T02:37:38.269Z,142.97
2022-10-29T02:40:05.427Z,92.50
2022-10-29T02:42:32.124Z,136.13
2022-10-29T02:44:58.872Z,87.97
2022-10-29T02:47:25.522Z,172.87
2022-10-29T02:49:52.317Z,134.03
2022-10-29T02:52:19.016Z,99.77
2022-10-29T02:54:45.688Z,125.73
2022-10-29T02:57:12.423Z,130.20
2022-10-29T02:59:39.167Z,64.10
2022-10-29T03:02:06.028Z,42.83
2022-10-29T03:04:33.296Z,40.13
2022-10-29T03:07:00.435Z,21.87
2022-10-29T03:09:27.056Z,26.33
2022-10-29T03:11:53.746Z,13.73
2022-10-29T03:14:20.403Z,12.80
2022-10-29T03:16:47.103Z,7.00
2022-10-29T03:19:13.719Z,16.70
2022-10-29T03:21:40.403Z,20.03
2022-10-29T03:24:07.343Z,5.57
2022-10-29T03:26:34.086Z,22.53
2022-10-29T03:29:00.967Z,17.87
2022-10-29T03:31:27.697Z,11.63
2022-10-29T03:33:54.396Z,51.20
2022-10-29T03:36:21.194Z,10.13
2022-10-29T03:38:48.044Z,24.67
2022-10-29T03:41:14.857Z,45.47
2022-10-29T03:43:41.602Z,74.77
2022-10-29T03:46:08.827Z,14.33
2022-10-29T03:48:35.697Z,23.67
2022-10-29T03:51:06.020Z,71.60
2022-10-29T03:53:34.426Z,35.37
2022-10-29T03:56:01.185Z,5.17
2022-10-29T03:58:28.236Z,28.43
2022-10-29T04:00:59.400Z,35.37
2022-10-29T04:03:27.455Z,11.60
2022-10-29T04:05:54.225Z,15.03
2022-10-29T04:08:20.945Z,19.90
2022-10-29T04:10:48.711Z,20.70
2022-10-29T04:13:15.873Z,79.97
2022-10-29T04:15:42.724Z,28.30
2022-10-29T04:18:10.778Z,20.30
2022-10-29T04:21:08.735Z,17.73
2022-10-29T04:28:58.473Z,39.30
2022-10-29T04:31:25.107Z,38.93
2022-10-29T04:33:53.274Z,47.00
2022-10-29T04:36:19.878Z,68.07
2022-10-29T04:38:46.502Z,121.87
2022-10-29T04:41:13.081Z,102.90
2022-10-29T04:43:39.681Z,59.27
2022-10-29T04:46:06.304Z,107.80
2022-10-29T04:48:33.134Z,74.03
2022-10-29T04:50:59.769Z,35.27
2022-10-29T04:53:26.346Z,22.77
2022-10-29T04:56:01.532Z,26.83
2022-10-29T04:58:28.482Z,17.77
2022-10-29T05:01:01.298Z,37.77
2022-10-29T05:03:27.971Z,16.00
2022-10-29T05:05:54.538Z,43.07
2022-10-29T05:08:21.629Z,34.00
2022-10-29T05:10:48.210Z,119.73
2022-10-29T05:13:15.090Z,7.03
2022-10-29T05:15:42.057Z,62.03
2022-10-29T05:18:10.178Z,74.80
2022-10-29T05:20:36.805Z,81.07
2022-10-29T05:23:08.513Z,53.80
2022-10-29T05:25:37.203Z,27.17
2022-10-29T05:28:21.199Z,50.70
2022-10-29T05:30:49.732Z,69.00
2022-10-29T05:33:19.358Z,42.77
2022-10-29T05:35:46.443Z,45.73
2022-10-29T05:38:14.619Z,41.20
2022-10-29T05:40:42.833Z,36.57
2022-10-29T05:43:09.428Z,43.47
2022-10-29T05:45:36.045Z,8.73
2022-10-29T05:48:04.181Z,35.97
2022-10-29T05:50:32.100Z,20.63
2022-10-29T05:53:00.617Z,48.13
2022-10-29T05:55:28.015Z,9.33
2022-10-29T05:58:05.146Z,159.43
2022-10-29T06:00:34.737Z,54.87
2022-10-29T06:03:01.902Z,15.47
2022-10-29T06:05:28.960Z,30.67
2022-10-29T06:07:59.999Z,77.90
2022-10-29T06:10:28.904Z,25.97
2022-10-29T06:12:55.770Z,33.13
2022-10-29T06:15:23.131Z,67.00
2022-10-29T06:17:50.154Z,52.67
2022-10-29T06:20:21.037Z,77.23
2022-10-29T06:22:48.251Z,29.53
2022-10-29T06:25:14.866Z,34.33
2022-10-29T06:27:41.641Z,25.37
2022-10-29T06:30:08.982Z,11.80
2022-10-29T06:32:35.622Z,57.70
2022-10-29T06:35:02.276Z,70.43
2022-10-29T06:37:29.785Z,124.10
2022-10-29T06:39:56.451Z,27.13
2022-10-29T06:42:23.023Z,14.60
2022-10-29T06:44:49.583Z,42.83
2022-10-29T06:47:16.350Z,54.37
2022-10-29T06:49:42.923Z,26.60
2022-10-29T06:52:09.487Z,38.43
2022-10-29T06:54:36.168Z,22.03
2022-10-29T06:57:02.831Z,52.10
2022-10-29T06:59:29.460Z,5.07
2022-10-29T07:01:56.174Z,44.83
2022-10-29T07:04:22.907Z,17.57
2022-10-29T07:06:49.523Z,18.90
2022-10-29T07:09:16.168Z,29.00
2022-10-29T07:11:42.800Z,35.33
2022-10-29T07:14:10.048Z,58.27
2022-10-29T07:16:36.978Z,52.03
2022-10-29T07:19:04.352Z,30.83
2022-10-29T07:21:31.088Z,32.33
2022-10-29T07:23:57.779Z,28.13
2022-10-29T07:26:24.536Z,52.97
2022-10-29T07:28:51.107Z,44.23
2022-10-29T07:31:17.876Z,17.23
2022-10-29T07:33:44.587Z,80.53
2022-10-29T07:36:11.293Z,21.27
2022-10-29T07:38:39.441Z,15.00
2022-10-29T07:41:06.292Z,17.10
2022-10-29T07:43:33.102Z,5.90
2022-10-29T07:45:59.892Z,62.83
2022-10-29T07:48:26.672Z,64.70
2022-10-29T07:50:53.403Z,84.53
2022-10-29T07:53:20.132Z,91.40
2022-10-29T07:55:53.173Z,34.00
2022-10-29T07:58:19.920Z,44.30
2022-10-29T08:00:46.662Z,76.40
2022-10-29T08:03:13.922Z,15.53
2022-10-29T08:05:42.794Z,114.67
2022-10-29T08:08:10.003Z,148.10
2022-10-29T08:10:36.789Z,80.43
2022-10-29T08:13:04.847Z,42.33
2022-10-29T08:15:33.211Z,46.93
2022-10-29T08:18:00.005Z,62.30
2022-10-29T08:20:28.170Z,45.43
2022-10-29T08:22:55.508Z,52.90
2022-10-29T08:25:22.603Z,145.87
2022-10-29T08:28:19.052Z,86.60
2022-10-29T08:30:49.904Z,16.03
2022-10-29T08:33:17.304Z,54.07
2022-10-29T08:35:44.063Z,171.00
2022-10-29T08:38:10.764Z,25.17
2022-10-29T08:40:55.743Z,44.03
2022-10-29T08:43:25.283Z,23.67
2022-10-29T08:45:53.394Z,47.93
2022-10-29T08:48:22.952Z,24.70
2022-10-29T08:51:26.211Z,28.13
2022-10-29T08:54:24.932Z,11.43
2022-10-29T08:56:54.302Z,41.87
2022-10-29T08:59:25.501Z,33.00
2022-10-29T09:01:53.917Z,39.97
2022-10-29T09:04:25.282Z,12.07
2022-10-29T09:07:12.242Z,12.33
2022-10-29T09:10:11.310Z,19.80
2022-10-29T09:12:56.610Z,31.70
2022-10-29T09:15:38.261Z,20.50
2022-10-29T09:18:15.421Z,23.73
2022-10-29T09:21:22.475Z,12.97
2022-10-29T09:24:08.896Z,40.57
2022-10-29T09:26:48.384Z,15.77
2022-10-29T09:29:27.554Z,12.93
2022-10-29T09:32:14.964Z,10.27
2022-10-29T09:34:45.114Z,8.77
2022-10-29T09:37:30.351Z,13.63
2022-10-29T09:39:58.742Z,14.63
2022-10-29T09:42:46.491Z,20.30
2022-10-29T09:45:16.574Z,12.60
2022-10-29T09:47:53.818Z,22.67
2022-10-29T09:50:29.251Z,24.63
2022-10-29T09:52:56.330Z,12.43
2022-10-29T09:55:34.283Z,18.33
2022-10-29T09:58:01.153Z,15.93
2022-10-29T10:00:32.199Z,9.40
2022-10-29T10:03:06.934Z,7.93
2022-10-29T10:05:35.572Z,10.53
2022-10-29T10:08:13.762Z,8.93
2022-10-29T10:10:57.937Z,13.10
2022-10-29T10:13:33.303Z,22.03
2022-10-29T10:16:02.346Z,11.60
2022-10-29T10:18:32.062Z,19.47
2022-10-29T10:21:29.358Z,19.33
2022-10-29T10:24:00.591Z,18.50
2022-10-29T10:26:39.495Z,17.40
2022-10-29T10:29:17.849Z,20.03
2022-10-29T10:31:46.928Z,29.23
2022-10-29T10:34:18.160Z,26.57
2022-10-29T10:36:57.465Z,15.37
2022-10-29T10:39:31.177Z,18.73
2022-10-29T10:41:59.950Z,24.27
2022-10-29T10:44:27.481Z,27.73
2022-10-29T10:46:56.243Z,20.77
2022-10-29T10:49:30.462Z,24.60
2022-10-29T10:51:58.284Z,8.83
2022-10-29T10:54:39.257Z,20.57
2022-10-29T10:57:12.251Z,14.17
2022-10-29T10:59:54.930Z,10.50
2022-10-29T11:02:24.692Z,36.80
2022-10-29T11:05:00.881Z,17.67
2022-10-29T11:07:34.523Z,22.80
2022-10-29T11:10:04.233Z,21.80
2022-10-29T11:12:33.370Z,35.50
2022-10-29T11:15:10.591Z,20.43
2022-10-29T11:18:00.928Z,28.17
2022-10-29T11:20:35.302Z,14.73
2022-10-29T11:23:23.520Z,13.63
2022-10-29T11:26:34.554Z,13.53
2022-10-29T11:29:11.735Z,11.33
2022-10-29T11:31:48.032Z,13.23
2022-10-29T11:34:33.334Z,21.97
2022-10-29T11:37:17.853Z,7.77
2022-10-29T11:40:05.025Z,7.53
2022-10-29T11:42:31.883Z,6.30
2022-10-29T11:44:59.369Z,14.43
2022-10-29T11:47:50.623Z,7.37
2022-10-29T11:50:41.312Z,9.43
2022-10-29T11:53:15.532Z,8.93
2022-10-29T11:56:11.951Z,6.60
2022-10-29T11:58:53.051Z,12.73
2022-10-29T12:01:45.099Z,14.83
2022-10-29T12:04:24.247Z,8.37
2022-10-29T12:07:22.162Z,13.17
2022-10-29T12:10:15.580Z,6.53
2022-10-29T12:12:49.500Z,16.27
2022-10-29T12:15:24.243Z,5.80
2022-10-29T12:18:00.932Z,11.27
2022-10-29T12:20:37.595Z,7.20
2022-10-29T12:23:25.474Z,5.30
2022-10-29T12:26:09.712Z,9.57
2022-10-29T12:28:36.381Z,7.10
2022-10-29T12:31:20.478Z,8.40
2022-10-29T12:34:16.372Z,8.30
2022-10-29T12:36:53.436Z,10.83
2022-10-29T12:39:30.092Z,12.23
2022-10-29T12:42:17.170Z,11.00
2022-10-29T12:45:22.612Z,9.27
2022-10-29T12:47:51.391Z,20.23
2022-10-29T12:50:21.194Z,17.03
2022-10-29T12:53:29.213Z,13.33
2022-10-29T12:55:57.413Z,11.87
2022-10-29T12:58:43.053Z,15.00
2022-10-29T13:01:57.212Z,11.20
2022-10-29T13:04:31.942Z,13.73
2022-10-29T13:07:18.780Z,6.90
2022-10-29T13:09:48.367Z,10.37
2022-10-29T13:12:55.842Z,10.10
2022-10-29T13:16:04.484Z,11.40
2022-10-29T13:18:41.689Z,10.57
2022-10-29T13:21:09.119Z,8.40
2022-10-29T13:23:37.655Z,6.90
2022-10-29T13:26:06.143Z,6.70
2022-10-29T13:28:35.852Z,7.80
2022-10-29T13:31:08.664Z,6.03
2022-10-29T13:33:38.420Z,8.37
2022-10-29T13:36:17.426Z,16.83
2022-10-29T13:39:05.033Z,7.30
2022-10-29T13:41:43.215Z,11.27
2022-10-29T13:44:26.653Z,7.67
2022-10-29T13:47:02.226Z,12.30
2022-10-29T13:49:33.093Z,9.13
2022-10-29T13:52:08.802Z,13.17
2022-10-29T13:54:55.233Z,10.87
2022-10-29T13:57:29.062Z,16.37
2022-10-29T14:00:08.177Z,20.20
2022-10-29T14:02:43.620Z,16.60
2022-10-29T14:05:16.393Z,19.87
2022-10-29T14:07:56.692Z,11.53
2022-10-29T14:10:26.586Z,17.10
2022-10-29T14:13:01.692Z,23.53
2022-10-29T14:15:28.421Z,17.70
2022-10-29T14:17:55.213Z,11.63
2022-10-29T14:20:26.884Z,17.70
2022-10-29T14:22:54.123Z,10.77
2022-10-29T14:25:35.741Z,18.30
2022-10-29T14:28:32.561Z,12.33
2022-10-29T14:31:16.743Z,20.73
2022-10-29T14:33:52.630Z,18.43
2022-10-29T14:36:25.160Z,17.80
2022-10-29T14:39:00.383Z,11.43
2022-10-29T14:41:29.538Z,13.90
2022-10-29T14:44:09.827Z,17.90
2022-10-29T14:46:37.836Z,15.80
2022-10-29T14:49:21.899Z,13.80
2022-10-29T14:51:53.585Z,13.50
2022-10-29T14:54:25.119Z,15.50
2022-10-29T14:56:56.483Z,13.30
2022-10-29T14:59:28.214Z,26.13
2022-10-29T15:02:05.588Z,20.43
2022-10-29T15:04:47.993Z,21.70
2022-10-29T15:07:22.871Z,15.50
2022-10-29T15:09:51.151Z,13.93
2022-10-29T15:12:36.003Z,15.87
2022-10-29T15:15:18.064Z,8.70
2022-10-29T15:17:52.965Z,14.97
2022-10-29T15:20:25.280Z,8.77
2022-10-29T15:22:56.243Z,12.93
2022-10-29T15:25:34.512Z,8.30
2022-10-29T15:28:01.881Z,11.93
2022-10-29T15:30:33.330Z,7.70
2022-10-29T15:33:01.481Z,8.23
2022-10-29T15:35:28.483Z,13.53
2022-10-29T15:37:55.584Z,7.97
2022-10-29T15:40:25.050Z,11.83
2022-10-29T15:42:52.663Z,11.60
2022-10-29T15:45:20.576Z,9.90
2022-10-29T15:47:58.844Z,27.90
2022-10-29T15:50:47.584Z,30.03
2022-10-29T15:53:16.072Z,17.40
2022-10-29T15:55:43.520Z,25.07
2022-10-29T15:58:18.102Z,19.00
2022-10-29T16:00:44.903Z,18.90
2022-10-29T16:03:21.379Z,9.77
2022-10-29T16:05:50.399Z,11.50
2022-10-29T16:08:37.119Z,16.37
2022-10-29T16:11:07.963Z,14.87
2022-10-29T16:13:35.201Z,14.93
2022-10-29T16:16:02.176Z,20.23
2022-10-29T16:18:28.959Z,10.80
2022-10-29T16:21:00.271Z,24.53
2022-10-29T16:23:27.051Z,27.20
2022-10-29T16:25:53.794Z,28.77
2022-10-29T16:28:20.582Z,17.10
2022-10-29T16:30:50.815Z,14.50
2022-10-29T16:33:18.132Z,18.30
2022-10-29T16:35:44.865Z,17.60
2022-10-29T16:38:12.605Z,8.70
2022-10-29T16:40:39.612Z,10.43
2022-10-29T16:43:06.354Z,15.37
2022-10-29T16:45:33.111Z,11.20
2022-10-29T16:48:00.158Z,10.40
2022-10-29T16:50:34.638Z,14.57
2022-10-29T16:53:02.315Z,13.47
2022-10-29T16:55:29.839Z,9.03
2022-10-29T16:57:57.238Z,22.57
2022-10-29T17:00:26.042Z,23.87
2022-10-29T17:02:53.059Z,9.27
2022-10-29T17:05:19.853Z,18.57
2022-10-29T17:07:46.554Z,31.10
2022-10-29T17:10:13.231Z,8.43
2022-10-29T17:12:39.939Z,11.07
2022-10-29T17:15:07.506Z,16.77
2022-10-29T17:17:34.265Z,12.80
2022-10-29T17:20:01.013Z,11.67
2022-10-29T17:22:27.679Z,14.33
2022-10-29T17:24:54.353Z,13.40
2022-10-29T17:27:21.121Z,8.50
2022-10-29T17:29:48.084Z,10.70
2022-10-29T17:32:15.054Z,6.73
2022-10-29T17:34:41.731Z,14.60
2022-10-29T17:37:09.385Z,13.37
2022-10-29T17:39:36.132Z,18.00
2022-10-29T17:42:02.882Z,11.60
2022-10-29T17:44:30.942Z,9.10
2022-10-29T17:46:57.743Z,12.40
2022-10-29T17:49:25.857Z,18.33
2022-10-29T17:51:53.163Z,12.70
2022-10-29T17:54:21.415Z,10.67
2022-10-29T17:56:49.184Z,13.43
2022-10-29T17:59:15.982Z,10.07
2022-10-29T18:01:44.212Z,19.80
2022-10-29T18:04:11.233Z,8.03
2022-10-29T18:06:38.076Z,8.40
2022-10-29T18:09:04.864Z,7.00
2022-10-29T18:11:31.662Z,9.23
2022-10-29T18:13:58.459Z,14.23
2022-10-29T18:16:27.340Z,12.40
2022-10-29T18:19:01.995Z,10.47
2022-10-29T18:21:30.370Z,17.47
2022-10-29T18:23:57.183Z,16.67
2022-10-29T18:26:25.403Z,9.50
2022-10-29T18:28:53.623Z,9.33
2022-10-29T18:31:21.102Z,11.43
2022-10-29T18:33:48.100Z,18.93
2022-10-29T18:36:14.852Z,11.07
2022-10-29T18:38:41.771Z,13.90
2022-10-29T18:41:09.082Z,13.70
2022-10-29T18:43:36.054Z,8.63
2022-10-29T18:46:05.237Z,8.10
2022-10-29T18:48:32.853Z,5.73
2022-10-29T18:51:20.217Z,14.00
2022-10-29T18:53:47.126Z,10.70
2022-10-29T18:56:15.971Z,9.43
2022-10-29T18:58:43.400Z,17.30
2022-10-29T19:01:17.848Z,10.57
2022-10-29T19:03:49.361Z,12.50
2022-10-29T19:06:16.104Z,7.10
2022-10-29T19:08:43.939Z,7.93
2022-10-29T19:11:16.232Z,17.13
2022-10-29T19:13:42.842Z,8.60
2022-10-29T19:16:11.653Z,11.00
2022-10-29T19:18:39.523Z,16.00
2022-10-29T19:21:11.641Z,8.00
2022-10-29T19:23:38.668Z,14.90
2022-10-29T19:26:09.654Z,9.37
2022-10-29T19:28:36.713Z,16.90
2022-10-29T19:31:07.399Z,16.00
2022-10-29T19:33:34.631Z,14.53
2022-10-29T19:36:01.909Z,10.33
2022-10-29T19:38:28.771Z,10.23
2022-10-29T19:40:58.495Z,17.30
2022-10-29T19:43:26.005Z,19.27
2022-10-29T19:45:53.142Z,9.20
2022-10-29T19:48:19.914Z,12.20
2022-10-29T19:50:53.848Z,6.83
2022-10-29T19:53:21.261Z,6.47
2022-10-29T19:55:50.581Z,8.50
2022-10-29T19:58:18.291Z,7.37
2022-10-29T20:00:45.016Z,10.30
2022-10-29T20:03:12.427Z,6.63
2022-10-29T20:05:42.637Z,7.50
2022-10-29T20:08:11.512Z,9.80
2022-10-29T20:10:41.472Z,4.40
2022-10-29T20:13:08.173Z,12.93
2022-10-29T20:15:34.874Z,12.90
2022-10-29T20:18:01.487Z,6.20
2022-10-29T20:20:28.175Z,10.33
2022-10-29T20:22:55.127Z,8.40
2022-10-29T20:25:24.015Z,4.83
2022-10-29T20:27:51.009Z,7.87
2022-10-29T20:30:17.863Z,6.67
2022-10-29T20:32:44.465Z,17.10
2022-10-29T20:35:11.078Z,19.27
2022-10-29T20:37:37.936Z,5.30
2022-10-29T20:40:05.499Z,6.80
2022-10-29T20:42:32.246Z,16.50
2022-10-29T20:44:58.861Z,10.47
2022-10-29T20:47:25.467Z,11.20
2022-10-29T20:49:52.082Z,8.53
2022-10-29T20:52:18.672Z,6.60
2022-10-29T20:54:45.289Z,7.43
2022-10-29T20:57:11.903Z,12.50
2022-10-29T20:59:38.504Z,13.10
2022-10-29T21:02:05.268Z,10.40
2022-10-29T21:04:31.949Z,10.27
2022-10-29T21:06:58.526Z,9.10
2022-10-29T21:09:25.102Z,6.97
2022-10-29T21:11:51.713Z,10.30
2022-10-29T21:14:18.345Z,9.97
2022-10-29T21:16:44.977Z,11.77
2022-10-29T21:19:11.604Z,7.90
2022-10-29T21:21:39.987Z,9.90
2022-10-29T21:24:06.738Z,9.20
2022-10-29T21:26:33.289Z,11.40
2022-10-29T21:28:59.880Z,14.07
2022-10-29T21:31:26.641Z,8.20
2022-10-29T21:33:54.019Z,5.93
2022-10-29T21:36:21.267Z,7.10
2022-10-29T21:38:48.360Z,11.20
2022-10-29T21:41:15.368Z,15.23
2022-10-29T21:43:41.929Z,8.87
2022-10-29T21:46:08.505Z,5.77
2022-10-29T21:48:35.338Z,10.83
2022-10-29T21:51:07.267Z,10.53
2022-10-29T21:53:34.434Z,9.13
2022-10-29T21:56:02.775Z,8.07
2022-10-29T21:58:29.943Z,7.70
2022-10-29T22:01:07.586Z,5.60
2022-10-29T22:03:35.060Z,17.57
2022-10-29T22:06:05.747Z,9.60
2022-10-29T22:08:33.092Z,7.30
2022-10-29T22:11:00.122Z,12.50
2022-10-29T22:13:30.573Z,11.43
2022-10-29T22:15:57.272Z,12.50
2022-10-29T22:18:24.836Z,16.63
2022-10-29T22:21:04.017Z,5.03
2022-10-29T22:23:30.664Z,18.03
2022-10-29T22:25:57.277Z,16.20
2022-10-29T22:28:23.947Z,10.30
2022-10-29T22:30:57.529Z,15.33
2022-10-29T22:33:24.123Z,10.70
2022-10-29T22:35:50.721Z,16.67
2022-10-29T22:38:17.959Z,10.83
2022-10-29T22:40:44.517Z,13.43
2022-10-29T22:43:12.100Z,17.10
2022-10-29T22:45:38.746Z,19.73
2022-10-29T22:48:05.635Z,16.17
2022-10-29T22:50:32.235Z,14.13
2022-10-29T22:52:59.073Z,14.10
2022-10-29T22:55:25.863Z,11.57
2022-10-29T22:57:52.485Z,27.37
2022-10-29T23:00:19.228Z,8.83
2022-10-29T23:02:45.839Z,5.20
2022-10-29T23:05:12.564Z,10.23
2022-10-29T23:07:39.245Z,9.20
2022-10-29T23:10:07.470Z,7.03
2022-10-29T23:12:34.173Z,10.23
2022-10-29T23:15:00.860Z,9.70
2022-10-29T23:17:27.533Z,13.73
2022-10-29T23:19:56.350Z,4.20
2022-10-29T23:22:26.409Z,24.73
2022-10-29T23:24:54.331Z,5.70
2022-10-29T23:27:20.977Z,10.53
2022-10-29T23:29:47.575Z,8.33
2022-10-29T23:32:14.404Z,5.57
2022-10-29T23:34:41.131Z,9.07
2022-10-29T23:37:09.908Z,10.40
2022-10-29T23:39:37.088Z,9.73
2022-10-29T23:42:04.145Z,11.50
2022-10-29T23:44:30.736Z,9.23
2022-10-29T23:46:57.353Z,16.23
2022-10-29T23:49:24.057Z,18.60
2022-10-29T23:51:50.709Z,6.80
2022-10-29T23:54:17.429Z,12.53
2022-10-29T23:56:44.089Z,11.50
2022-10-29T23:59:10.922Z,8.33
